Millican, Texas
Current Conditions -  °F | °C
As of 1:53 PM on Tuesday 25 Nov 2014 (Local Time) from KCLL Reporting Station
Clear Clear  
Wind Chill: 64°   Ceiling: Unl
Heat Index: 64°   Visibility: 10mi
Dew Point: 24°   Wind: 9mph
Humidity: 22%   Direction: 300°WNW
Pressure: 30.25"   Gusts: NA
Location:  30.47°N, 96.2°W
Report Text: KCLL 251953Z 30008KT 270V330 10SM CLR 18/M04 A3025 RMK AO2 SLP240 T01781044
Loading
Personal Weather Stations






























Interactive Weather Map New forecast layout! Learn more

10-Day Weather Forecast

Advertisements
Track Severe Weather on mobile